Newcastle, Canada
Current Conditions -  °F | °C
As of 4:00 AM on Wednesday 26 Nov 2014 (Local Time) from CZBF Reporting Station
Scattered Clouds Scattered Clouds  
Wind Chill: 31°   Ceiling: Unl
Heat Index: 39°   Visibility: 15mi
Dew Point: 27°   Wind: 15mph
Humidity: 61%   Direction: 260°W
Pressure: 29.92"   Gusts: 23mph
Location:  46.98°N, 65.57°W
Report Text: CZBF 260800Z 26013G20KT 15SM SCT120 04/M03 A2992 RMK AC3 SLP133
Loading
Personal Weather Stations






























Interactive Weather Map New forecast layout! Learn more

10-Day Weather Forecast

Advertisements
Track Severe Weather on mobile